Terminal Aerodrome Forecast
Issued by NWS

Home | Current Version | Previous Version | Text Only | Print | Product List | Glossary Off
Versions: 1 2 3 4 5 6 7 8 9 10 11 12 13 14 15 16 17 18 19 20 21

000
FTUS43 KMPX 181500 AAB
TAFAXN
TAF AMD
KAXN 181506Z 1815/1912 11009KT 1/2SM FG VV002
     FM181600 13010KT 2SM BR OVC003
     FM181700 16014KT P6SM SCT035
     FM190800 18015G22KT P6SM OVC006=

USA.gov is the U.S. government's official web portal to all federal, state and local government web resources and services.